Terminal Aerodrome Forecast
Issued by NWS Albuquerque, NM

Home | Current Version | Previous Version | Text Only | Print | Product List | Glossary On
Versions: 1 2 3 4 5 6 7 8 9 10 11 12 13 14 15 16 17 18
000
FTUS45 KABQ 212322
TAFABQ
TAF
KABQ 212322Z 2200/2224 30020G30KT P6SM BKN070
     FM220200 31015G25KT P6SM SCT090
     FM220800 34010KT P6SM SKC
     FM221500 33006KT P6SM FEW250=

USA.gov is the U.S. government's official web portal to all federal, state and local government web resources and services.